sensor_id;sensor_type;location;lat;lon;timestamp;temperature;humidity
27376;DHT22;14844;51.302;6.354;2022-11-20T00:01:28;2.70;99.90
27376;DHT22;14844;51.302;6.354;2022-11-20T00:03:55;2.70;99.90
27376;DHT22;14844;51.302;6.354;2022-11-20T00:06:22;2.70;99.90
27376;DHT22;14844;51.302;6.354;2022-11-20T00:08:48;2.70;99.90
27376;DHT22;14844;51.302;6.354;2022-11-20T00:11:19;2.70;99.90
27376;DHT22;14844;51.302;6.354;2022-11-20T00:13:47;2.60;99.90
27376;DHT22;14844;51.302;6.354;2022-11-20T00:16:14;2.60;99.90
27376;DHT22;14844;51.302;6.354;2022-11-20T00:18:40;2.40;99.90
27376;DHT22;14844;51.302;6.354;2022-11-20T00:21:10;2.50;99.90
27376;DHT22;14844;51.302;6.354;2022-11-20T00:23:36;2.50;99.90
27376;DHT22;14844;51.302;6.354;2022-11-20T00:26:07;2.50;99.90
27376;DHT22;14844;51.302;6.354;2022-11-20T00:28:33;2.50;99.90
27376;DHT22;14844;51.302;6.354;2022-11-20T00:33:29;2.40;99.90
27376;DHT22;14844;51.302;6.354;2022-11-20T00:36:02;2.50;99.90
27376;DHT22;14844;51.302;6.354;2022-11-20T00:38:29;2.40;99.90
27376;DHT22;14844;51.302;6.354;2022-11-20T00:40:56;2.40;99.90
27376;DHT22;14844;51.302;6.354;2022-11-20T00:43:22;2.40;99.90
27376;DHT22;14844;51.302;6.354;2022-11-20T00:45:48;2.40;99.90
27376;DHT22;14844;51.302;6.354;2022-11-20T00:48:13;2.40;99.90
27376;DHT22;14844;51.302;6.354;2022-11-20T00:50:41;2.40;99.90
27376;DHT22;14844;51.302;6.354;2022-11-20T00:53:06;2.40;99.90
27376;DHT22;14844;51.302;6.354;2022-11-20T00:55:32;2.40;99.90
27376;DHT22;14844;51.302;6.354;2022-11-20T00:57:57;2.40;99.90
27376;DHT22;14844;51.302;6.354;2022-11-20T01:00:23;2.40;99.90
27376;DHT22;14844;51.302;6.354;2022-11-20T01:02:48;2.40;99.90
27376;DHT22;14844;51.302;6.354;2022-11-20T01:05:14;2.40;99.90
27376;DHT22;14844;51.302;6.354;2022-11-20T01:07:39;2.40;99.90
27376;DHT22;14844;51.302;6.354;2022-11-20T01:10:05;2.40;99.90
27376;DHT22;14844;51.302;6.354;2022-11-20T01:12:31;2.40;99.90
27376;DHT22;14844;51.302;6.354;2022-11-20T01:14:56;2.40;99.90
27376;DHT22;14844;51.302;6.354;2022-11-20T01:17:22;2.40;99.90
27376;DHT22;14844;51.302;6.354;2022-11-20T01:19:51;2.40;99.90
27376;DHT22;14844;51.302;6.354;2022-11-20T01:22:16;2.30;99.90
27376;DHT22;14844;51.302;6.354;2022-11-20T01:24:42;2.40;99.90
27376;DHT22;14844;51.302;6.354;2022-11-20T01:27:07;2.40;99.90
27376;DHT22;14844;51.302;6.354;2022-11-20T01:29:33;2.40;99.90
27376;DHT22;14844;51.302;6.354;2022-11-20T01:31:58;2.30;99.90
27376;DHT22;14844;51.302;6.354;2022-11-20T01:34:24;2.10;99.90
27376;DHT22;14844;51.302;6.354;2022-11-20T01:36:51;1.90;99.90
27376;DHT22;14844;51.302;6.354;2022-11-20T01:39:20;1.70;99.90
27376;DHT22;14844;51.302;6.354;2022-11-20T01:41:48;1.50;99.90
27376;DHT22;14844;51.302;6.354;2022-11-20T01:44:50;1.20;99.90
27376;DHT22;14844;51.302;6.354;2022-11-20T01:47:25;1.00;99.90
27376;DHT22;14844;51.302;6.354;2022-11-20T01:50:22;0.80;99.90
27376;DHT22;14844;51.302;6.354;2022-11-20T01:52:56;0.60;99.90
27376;DHT22;14844;51.302;6.354;2022-11-20T01:55:26;0.40;99.90
27376;DHT22;14844;51.302;6.354;2022-11-20T01:57:52;0.20;99.90
27376;DHT22;14844;51.302;6.354;2022-11-20T02:00:19;-0.10;99.90
27376;DHT22;14844;51.302;6.354;2022-11-20T02:02:52;0.00;99.90
27376;DHT22;14844;51.302;6.354;2022-11-20T02:07:48;-0.10;99.90
27376;DHT22;14844;51.302;6.354;2022-11-20T02:10:14;-0.20;99.90
27376;DHT22;14844;51.302;6.354;2022-11-20T02:12:40;-0.30;99.90
27376;DHT22;14844;51.302;6.354;2022-11-20T02:15:24;-0.30;99.90
27376;DHT22;14844;51.302;6.354;2022-11-20T02:17:50;-0.30;99.90
27376;DHT22;14844;51.302;6.354;2022-11-20T02:20:16;-0.40;99.90
27376;DHT22;14844;51.302;6.354;2022-11-20T02:22:53;-0.40;99.90
27376;DHT22;14844;51.302;6.354;2022-11-20T02:25:20;-0.40;99.90
27376;DHT22;14844;51.302;6.354;2022-11-20T02:27:46;-0.50;99.90
27376;DHT22;14844;51.302;6.354;2022-11-20T02:30:12;-0.50;99.90
27376;DHT22;14844;51.302;6.354;2022-11-20T02:32:39;-0.70;99.90
27376;DHT22;14844;51.302;6.354;2022-11-20T02:37:53;-0.80;99.90
27376;DHT22;14844;51.302;6.354;2022-11-20T02:40:22;-0.80;99.90
27376;DHT22;14844;51.302;6.354;2022-11-20T02:42:52;-0.80;99.90
27376;DHT22;14844;51.302;6.354;2022-11-20T02:45:17;-0.70;99.90
27376;DHT22;14844;51.302;6.354;2022-11-20T02:47:43;-0.70;99.90
27376;DHT22;14844;51.302;6.354;2022-11-20T02:50:08;-0.70;99.90
27376;DHT22;14844;51.302;6.354;2022-11-20T02:52:34;-0.80;99.90
27376;DHT22;14844;51.302;6.354;2022-11-20T02:54:59;-1.00;99.90
27376;DHT22;14844;51.302;6.354;2022-11-20T02:57:25;-1.10;99.90
27376;DHT22;14844;51.302;6.354;2022-11-20T02:59:51;-1.00;99.90
27376;DHT22;14844;51.302;6.354;2022-11-20T03:02:17;-1.00;99.90
27376;DHT22;14844;51.302;6.354;2022-11-20T03:04:42;-1.10;99.90
27376;DHT22;14844;51.302;6.354;2022-11-20T03:07:08;-1.10;99.90
27376;DHT22;14844;51.302;6.354;2022-11-20T03:09:35;-1.10;99.90
27376;DHT22;14844;51.302;6.354;2022-11-20T03:12:00;-1.10;99.90
27376;DHT22;14844;51.302;6.354;2022-11-20T03:14:26;-1.00;99.90
27376;DHT22;14844;51.302;6.354;2022-11-20T03:16:51;-0.80;99.90
27376;DHT22;14844;51.302;6.354;2022-11-20T03:19:17;-0.70;99.90
27376;DHT22;14844;51.302;6.354;2022-11-20T03:21:43;-0.60;99.90
27376;DHT22;14844;51.302;6.354;2022-11-20T03:24:08;-0.50;99.90
27376;DHT22;14844;51.302;6.354;2022-11-20T03:26:34;-0.30;99.90
27376;DHT22;14844;51.302;6.354;2022-11-20T03:29:01;-0.10;99.90
27376;DHT22;14844;51.302;6.354;2022-11-20T03:31:30;-0.10;99.90
27376;DHT22;14844;51.302;6.354;2022-11-20T03:33:57;0.10;99.90
27376;DHT22;14844;51.302;6.354;2022-11-20T03:36:23;0.20;99.90
27376;DHT22;14844;51.302;6.354;2022-11-20T03:38:49;0.30;99.90
27376;DHT22;14844;51.302;6.354;2022-11-20T03:41:29;0.40;99.90
27376;DHT22;14844;51.302;6.354;2022-11-20T03:44:00;0.50;99.90
27376;DHT22;14844;51.302;6.354;2022-11-20T03:46:26;0.60;99.90
27376;DHT22;14844;51.302;6.354;2022-11-20T03:48:53;0.60;99.90
27376;DHT22;14844;51.302;6.354;2022-11-20T03:51:24;0.70;99.90
27376;DHT22;14844;51.302;6.354;2022-11-20T03:53:51;0.70;99.90
27376;DHT22;14844;51.302;6.354;2022-11-20T03:56:20;0.70;99.90
27376;DHT22;14844;51.302;6.354;2022-11-20T03:58:45;0.80;99.90
27376;DHT22;14844;51.302;6.354;2022-11-20T04:01:17;0.80;99.90
27376;DHT22;14844;51.302;6.354;2022-11-20T04:03:43;0.90;99.90
27376;DHT22;14844;51.302;6.354;2022-11-20T04:06:18;1.00;99.90
27376;DHT22;14844;51.302;6.354;2022-11-20T04:08:44;1.00;99.90
27376;DHT22;14844;51.302;6.354;2022-11-20T04:11:15;1.10;99.90
27376;DHT22;14844;51.302;6.354;2022-11-20T04:13:45;1.10;99.90
27376;DHT22;14844;51.302;6.354;2022-11-20T04:16:10;1.10;99.90
27376;DHT22;14844;51.302;6.354;2022-11-20T04:18:36;1.10;99.90
27376;DHT22;14844;51.302;6.354;2022-11-20T04:21:03;1.10;99.90
27376;DHT22;14844;51.302;6.354;2022-11-20T04:23:29;1.10;99.90
27376;DHT22;14844;51.302;6.354;2022-11-20T04:25:54;1.20;99.90
27376;DHT22;14844;51.302;6.354;2022-11-20T04:28:20;1.10;99.90
27376;DHT22;14844;51.302;6.354;2022-11-20T04:30:46;1.20;99.90
27376;DHT22;14844;51.302;6.354;2022-11-20T04:33:12;1.20;99.90
27376;DHT22;14844;51.302;6.354;2022-11-20T04:35:38;1.20;99.90
27376;DHT22;14844;51.302;6.354;2022-11-20T04:38:04;1.30;99.90
27376;DHT22;14844;51.302;6.354;2022-11-20T04:40:30;1.30;99.90
27376;DHT22;14844;51.302;6.354;2022-11-20T04:42:56;1.40;99.90
27376;DHT22;14844;51.302;6.354;2022-11-20T04:45:24;1.40;99.90
27376;DHT22;14844;51.302;6.354;2022-11-20T04:47:50;1.40;99.90
27376;DHT22;14844;51.302;6.354;2022-11-20T04:50:15;1.40;99.90
27376;DHT22;14844;51.302;6.354;2022-11-20T04:52:41;1.50;99.90
27376;DHT22;14844;51.302;6.354;2022-11-20T04:55:07;1.50;99.90
27376;DHT22;14844;51.302;6.354;2022-11-20T04:57:32;1.50;99.90
27376;DHT22;14844;51.302;6.354;2022-11-20T04:59:58;1.50;99.90
27376;DHT22;14844;51.302;6.354;2022-11-20T05:02:23;1.60;99.90
27376;DHT22;14844;51.302;6.354;2022-11-20T05:04:49;1.60;99.90
27376;DHT22;14844;51.302;6.354;2022-11-20T05:07:14;1.50;99.90
27376;DHT22;14844;51.302;6.354;2022-11-20T05:09:40;1.40;99.90
27376;DHT22;14844;51.302;6.354;2022-11-20T05:12:07;1.40;99.90
27376;DHT22;14844;51.302;6.354;2022-11-20T05:14:33;1.40;99.90
27376;DHT22;14844;51.302;6.354;2022-11-20T05:16:59;1.40;99.90
27376;DHT22;14844;51.302;6.354;2022-11-20T05:19:24;1.40;99.90
27376;DHT22;14844;51.302;6.354;2022-11-20T05:21:50;1.40;99.90
27376;DHT22;14844;51.302;6.354;2022-11-20T05:24:15;1.40;99.90
27376;DHT22;14844;51.302;6.354;2022-11-20T05:26:41;1.40;99.90
27376;DHT22;14844;51.302;6.354;2022-11-20T05:29:06;1.40;99.90
27376;DHT22;14844;51.302;6.354;2022-11-20T05:31:32;1.40;99.90
27376;DHT22;14844;51.302;6.354;2022-11-20T05:33:57;1.40;99.90
27376;DHT22;14844;51.302;6.354;2022-11-20T05:36:23;1.70;99.90
27376;DHT22;14844;51.302;6.354;2022-11-20T05:38:49;1.70;99.90
27376;DHT22;14844;51.302;6.354;2022-11-20T05:41:17;1.60;99.90
27376;DHT22;14844;51.302;6.354;2022-11-20T05:43:44;1.70;99.90
27376;DHT22;14844;51.302;6.354;2022-11-20T05:46:12;1.70;99.90
27376;DHT22;14844;51.302;6.354;2022-11-20T05:48:39;1.80;99.90
27376;DHT22;14844;51.302;6.354;2022-11-20T05:51:07;1.70;99.90
27376;DHT22;14844;51.302;6.354;2022-11-20T05:53:34;1.70;99.90
27376;DHT22;14844;51.302;6.354;2022-11-20T05:56:38;1.70;99.90
27376;DHT22;14844;51.302;6.354;2022-11-20T05:58:57;1.70;99.90
27376;DHT22;14844;51.302;6.354;2022-11-20T06:01:25;1.70;99.90
27376;DHT22;14844;51.302;6.354;2022-11-20T06:03:52;1.60;99.90
27376;DHT22;14844;51.302;6.354;2022-11-20T06:06:18;1.60;99.90
27376;DHT22;14844;51.302;6.354;2022-11-20T06:08:44;1.60;99.90
27376;DHT22;14844;51.302;6.354;2022-11-20T06:11:12;1.70;99.90
27376;DHT22;14844;51.302;6.354;2022-11-20T06:13:38;1.70;99.90
27376;DHT22;14844;51.302;6.354;2022-11-20T06:16:04;1.70;99.90
27376;DHT22;14844;51.302;6.354;2022-11-20T06:18:30;1.50;99.90
27376;DHT22;14844;51.302;6.354;2022-11-20T06:21:10;1.50;99.90
27376;DHT22;14844;51.302;6.354;2022-11-20T06:23:36;1.60;99.90
27376;DHT22;14844;51.302;6.354;2022-11-20T06:26:10;1.50;99.90
27376;DHT22;14844;51.302;6.354;2022-11-20T06:28:36;1.50;99.90
27376;DHT22;14844;51.302;6.354;2022-11-20T06:31:02;1.40;99.90
27376;DHT22;14844;51.302;6.354;2022-11-20T06:33:28;1.40;99.90
27376;DHT22;14844;51.302;6.354;2022-11-20T06:35:57;1.20;99.90
27376;DHT22;14844;51.302;6.354;2022-11-20T06:38:24;1.10;99.90
27376;DHT22;14844;51.302;6.354;2022-11-20T06:40:49;1.10;99.90
27376;DHT22;14844;51.302;6.354;2022-11-20T06:43:15;1.00;99.90
27376;DHT22;14844;51.302;6.354;2022-11-20T06:45:40;1.00;99.90
27376;DHT22;14844;51.302;6.354;2022-11-20T06:48:06;1.20;99.90
27376;DHT22;14844;51.302;6.354;2022-11-20T06:50:31;1.30;99.90
27376;DHT22;14844;51.302;6.354;2022-11-20T06:53:00;1.30;99.90
27376;DHT22;14844;51.302;6.354;2022-11-20T06:55:26;1.30;99.90
27376;DHT22;14844;51.302;6.354;2022-11-20T06:57:51;1.50;99.90
27376;DHT22;14844;51.302;6.354;2022-11-20T07:00:17;1.50;99.90
27376;DHT22;14844;51.302;6.354;2022-11-20T07:02:42;1.40;99.90
27376;DHT22;14844;51.302;6.354;2022-11-20T07:05:08;1.40;99.90
27376;DHT22;14844;51.302;6.354;2022-11-20T07:07:33;1.50;99.90
27376;DHT22;14844;51.302;6.354;2022-11-20T07:09:59;1.50;99.90
27376;DHT22;14844;51.302;6.354;2022-11-20T07:12:24;1.70;99.90
27376;DHT22;14844;51.302;6.354;2022-11-20T07:14:50;1.70;99.90
27376;DHT22;14844;51.302;6.354;2022-11-20T07:17:15;1.60;99.90
27376;DHT22;14844;51.302;6.354;2022-11-20T07:19:41;1.60;99.90
27376;DHT22;14844;51.302;6.354;2022-11-20T07:22:08;1.60;99.90
27376;DHT22;14844;51.302;6.354;2022-11-20T07:24:33;1.70;99.90
27376;DHT22;14844;51.302;6.354;2022-11-20T07:27:00;1.80;99.90
27376;DHT22;14844;51.302;6.354;2022-11-20T07:29:25;1.80;99.90
27376;DHT22;14844;51.302;6.354;2022-11-20T07:31:51;1.90;99.90
27376;DHT22;14844;51.302;6.354;2022-11-20T07:34:16;2.00;99.90
27376;DHT22;14844;51.302;6.354;2022-11-20T07:36:42;2.00;99.90
27376;DHT22;14844;51.302;6.354;2022-11-20T07:39:08;2.10;99.90
27376;DHT22;14844;51.302;6.354;2022-11-20T07:41:33;2.20;99.90
27376;DHT22;14844;51.302;6.354;2022-11-20T07:43:59;2.30;99.90
27376;DHT22;14844;51.302;6.354;2022-11-20T07:46:24;2.40;99.90
27376;DHT22;14844;51.302;6.354;2022-11-20T07:48:50;2.50;99.90
27376;DHT22;14844;51.302;6.354;2022-11-20T07:51:15;2.50;99.90
27376;DHT22;14844;51.302;6.354;2022-11-20T07:53:43;2.50;99.90
27376;DHT22;14844;51.302;6.354;2022-11-20T07:56:09;2.50;99.90
27376;DHT22;14844;51.302;6.354;2022-11-20T07:58:43;2.50;99.90
27376;DHT22;14844;51.302;6.354;2022-11-20T08:01:08;2.60;99.90
27376;DHT22;14844;51.302;6.354;2022-11-20T08:03:34;2.70;99.90
27376;DHT22;14844;51.302;6.354;2022-11-20T08:06:02;2.70;99.90
27376;DHT22;14844;51.302;6.354;2022-11-20T08:08:28;2.70;99.90
27376;DHT22;14844;51.302;6.354;2022-11-20T08:10:56;2.80;99.90
27376;DHT22;14844;51.302;6.354;2022-11-20T08:13:41;2.90;99.90
27376;DHT22;14844;51.302;6.354;2022-11-20T08:16:27;3.10;99.90
27376;DHT22;14844;51.302;6.354;2022-11-20T08:18:53;3.30;99.90
27376;DHT22;14844;51.302;6.354;2022-11-20T08:21:19;3.40;99.90
27376;DHT22;14844;51.302;6.354;2022-11-20T08:23:44;3.40;99.90
27376;DHT22;14844;51.302;6.354;2022-11-20T08:26:10;3.40;99.90
27376;DHT22;14844;51.302;6.354;2022-11-20T08:28:35;3.50;99.90
27376;DHT22;14844;51.302;6.354;2022-11-20T08:31:02;3.60;99.90
27376;DHT22;14844;51.302;6.354;2022-11-20T08:33:28;3.60;99.90
27376;DHT22;14844;51.302;6.354;2022-11-20T08:36:00;3.80;99.90
27376;DHT22;14844;51.302;6.354;2022-11-20T08:38:26;3.90;99.90
27376;DHT22;14844;51.302;6.354;2022-11-20T08:40:51;3.90;99.90
27376;DHT22;14844;51.302;6.354;2022-11-20T08:43:35;3.80;99.90
27376;DHT22;14844;51.302;6.354;2022-11-20T08:46:01;3.80;99.90
27376;DHT22;14844;51.302;6.354;2022-11-20T08:48:26;3.80;99.90
27376;DHT22;14844;51.302;6.354;2022-11-20T08:50:52;3.80;99.90
27376;DHT22;14844;51.302;6.354;2022-11-20T08:53:17;3.90;99.90
27376;DHT22;14844;51.302;6.354;2022-11-20T08:55:43;4.00;99.90
27376;DHT22;14844;51.302;6.354;2022-11-20T08:58:08;4.10;99.90
27376;DHT22;14844;51.302;6.354;2022-11-20T09:00:34;4.30;99.90
27376;DHT22;14844;51.302;6.354;2022-11-20T09:03:00;4.40;99.90
27376;DHT22;14844;51.302;6.354;2022-11-20T09:05:29;4.70;99.90
27376;DHT22;14844;51.302;6.354;2022-11-20T09:08:08;4.90;99.90
27376;DHT22;14844;51.302;6.354;2022-11-20T09:10:34;5.10;99.90
27376;DHT22;14844;51.302;6.354;2022-11-20T09:13:12;5.30;99.90
27376;DHT22;14844;51.302;6.354;2022-11-20T09:15:37;5.50;99.90
27376;DHT22;14844;51.302;6.354;2022-11-20T09:18:03;5.80;99.90
27376;DHT22;14844;51.302;6.354;2022-11-20T09:20:32;5.80;99.90
27376;DHT22;14844;51.302;6.354;2022-11-20T09:22:58;5.70;99.90
27376;DHT22;14844;51.302;6.354;2022-11-20T09:25:23;5.80;99.90
27376;DHT22;14844;51.302;6.354;2022-11-20T09:27:55;5.80;99.90
27376;DHT22;14844;51.302;6.354;2022-11-20T09:30:21;5.90;99.90
27376;DHT22;14844;51.302;6.354;2022-11-20T09:32:47;6.00;99.90
27376;DHT22;14844;51.302;6.354;2022-11-20T09:35:12;6.00;99.90
27376;DHT22;14844;51.302;6.354;2022-11-20T09:37:39;6.10;99.90
27376;DHT22;14844;51.302;6.354;2022-11-20T09:40:06;6.00;99.90
27376;DHT22;14844;51.302;6.354;2022-11-20T09:43:00;5.60;99.90
27376;DHT22;14844;51.302;6.354;2022-11-20T09:48:32;5.50;99.90
27376;DHT22;14844;51.302;6.354;2022-11-20T09:51:24;5.40;99.90
27376;DHT22;14844;51.302;6.354;2022-11-20T09:56:21;5.30;99.90
27376;DHT22;14844;51.302;6.354;2022-11-20T09:58:52;5.50;99.90
27376;DHT22;14844;51.302;6.354;2022-11-20T10:01:26;5.30;99.90
27376;DHT22;14844;51.302;6.354;2022-11-20T10:04:04;5.20;99.90
27376;DHT22;14844;51.302;6.354;2022-11-20T10:06:35;5.30;99.90
27376;DHT22;14844;51.302;6.354;2022-11-20T10:12:03;5.20;99.90
27376;DHT22;14844;51.302;6.354;2022-11-20T10:23:04;5.20;99.90
27376;DHT22;14844;51.302;6.354;2022-11-20T10:28:26;5.40;99.90
27376;DHT22;14844;51.302;6.354;2022-11-20T10:31:00;5.50;99.90
27376;DHT22;14844;51.302;6.354;2022-11-20T10:33:33;5.60;99.90
27376;DHT22;14844;51.302;6.354;2022-11-20T10:36:21;5.80;99.90
27376;DHT22;14844;51.302;6.354;2022-11-20T10:39:06;5.90;99.90
27376;DHT22;14844;51.302;6.354;2022-11-20T10:41:38;6.10;99.90
27376;DHT22;14844;51.302;6.354;2022-11-20T10:44:12;6.20;99.90
27376;DHT22;14844;51.302;6.354;2022-11-20T10:46:46;6.40;99.90
27376;DHT22;14844;51.302;6.354;2022-11-20T10:49:17;6.40;99.90
27376;DHT22;14844;51.302;6.354;2022-11-20T10:55:04;6.70;99.90
27376;DHT22;14844;51.302;6.354;2022-11-20T10:57:59;6.80;99.90
27376;DHT22;14844;51.302;6.354;2022-11-20T11:00:30;6.80;99.90
27376;DHT22;14844;51.302;6.354;2022-11-20T11:02:55;6.70;99.90
27376;DHT22;14844;51.302;6.354;2022-11-20T11:05:40;6.60;99.90
27376;DHT22;14844;51.302;6.354;2022-11-20T11:08:13;6.50;99.90
27376;DHT22;14844;51.302;6.354;2022-11-20T11:13:30;6.40;99.90
27376;DHT22;14844;51.302;6.354;2022-11-20T11:15:57;6.50;99.90
27376;DHT22;14844;51.302;6.354;2022-11-20T11:18:33;6.60;99.90
27376;DHT22;14844;51.302;6.354;2022-11-20T11:21:02;6.80;99.90
27376;DHT22;14844;51.302;6.354;2022-11-20T11:23:41;6.90;99.90
27376;DHT22;14844;51.302;6.354;2022-11-20T11:26:19;7.10;99.90
27376;DHT22;14844;51.302;6.354;2022-11-20T11:28:58;7.20;99.90
27376;DHT22;14844;51.302;6.354;2022-11-20T11:31:29;7.20;99.90
27376;DHT22;14844;51.302;6.354;2022-11-20T11:34:15;7.20;99.90
27376;DHT22;14844;51.302;6.354;2022-11-20T11:36:41;7.40;99.90
27376;DHT22;14844;51.302;6.354;2022-11-20T11:39:18;7.40;99.90
27376;DHT22;14844;51.302;6.354;2022-11-20T11:41:45;7.50;99.90
27376;DHT22;14844;51.302;6.354;2022-11-20T11:44:19;7.40;99.90
27376;DHT22;14844;51.302;6.354;2022-11-20T11:47:05;7.40;99.90
27376;DHT22;14844;51.302;6.354;2022-11-20T11:49:34;7.40;99.90
27376;DHT22;14844;51.302;6.354;2022-11-20T11:52:17;7.40;99.90
27376;DHT22;14844;51.302;6.354;2022-11-20T11:54:53;7.20;99.90
27376;DHT22;14844;51.302;6.354;2022-11-20T12:02:36;6.90;99.90
27376;DHT22;14844;51.302;6.354;2022-11-20T12:05:13;7.00;99.90
27376;DHT22;14844;51.302;6.354;2022-11-20T12:07:43;7.10;99.90
27376;DHT22;14844;51.302;6.354;2022-11-20T12:15:58;7.00;99.90
27376;DHT22;14844;51.302;6.354;2022-11-20T12:18:24;7.00;99.90
27376;DHT22;14844;51.302;6.354;2022-11-20T12:21:10;7.00;99.90
27376;DHT22;14844;51.302;6.354;2022-11-20T12:29:24;7.00;99.90
27376;DHT22;14844;51.302;6.354;2022-11-20T12:40:17;6.80;99.90
27376;DHT22;14844;51.302;6.354;2022-11-20T12:43:13;6.80;99.90
27376;DHT22;14844;51.302;6.354;2022-11-20T12:46:08;6.80;99.90
27376;DHT22;14844;51.302;6.354;2022-11-20T12:48:47;6.80;99.90
27376;DHT22;14844;51.302;6.354;2022-11-20T12:51:41;6.80;99.90
27376;DHT22;14844;51.302;6.354;2022-11-20T12:54:26;6.90;99.90
27376;DHT22;14844;51.302;6.354;2022-11-20T12:57:23;6.80;99.90
27376;DHT22;14844;51.302;6.354;2022-11-20T13:00:22;6.90;99.90
27376;DHT22;14844;51.302;6.354;2022-11-20T13:03:23;6.90;99.90
27376;DHT22;14844;51.302;6.354;2022-11-20T13:08:39;6.90;99.90
27376;DHT22;14844;51.302;6.354;2022-11-20T13:11:27;6.90;99.90
27376;DHT22;14844;51.302;6.354;2022-11-20T13:14:04;6.90;99.90
27376;DHT22;14844;51.302;6.354;2022-11-20T13:16:58;6.90;99.90
27376;DHT22;14844;51.302;6.354;2022-11-20T13:19:25;6.90;99.90
27376;DHT22;14844;51.302;6.354;2022-11-20T13:21:52;6.70;99.90
27376;DHT22;14844;51.302;6.354;2022-11-20T13:29:43;6.60;99.90
27376;DHT22;14844;51.302;6.354;2022-11-20T13:32:16;6.60;99.90
27376;DHT22;14844;51.302;6.354;2022-11-20T13:34:58;6.70;99.90
27376;DHT22;14844;51.302;6.354;2022-11-20T13:42:46;6.80;99.90
27376;DHT22;14844;51.302;6.354;2022-11-20T13:45:23;6.90;99.90
27376;DHT22;14844;51.302;6.354;2022-11-20T13:47:50;7.10;99.90
27376;DHT22;14844;51.302;6.354;2022-11-20T13:53:29;7.10;99.90
27376;DHT22;14844;51.302;6.354;2022-11-20T13:56:07;6.90;99.90
27376;DHT22;14844;51.302;6.354;2022-11-20T13:59:06;6.90;99.90
27376;DHT22;14844;51.302;6.354;2022-11-20T14:01:33;6.70;99.90
27376;DHT22;14844;51.302;6.354;2022-11-20T14:04:06;6.70;99.90
27376;DHT22;14844;51.302;6.354;2022-11-20T14:06:44;6.50;99.90
27376;DHT22;14844;51.302;6.354;2022-11-20T14:09:13;6.50;99.90
27376;DHT22;14844;51.302;6.354;2022-11-20T14:11:46;6.50;99.90
27376;DHT22;14844;51.302;6.354;2022-11-20T14:14:18;6.50;99.90
27376;DHT22;14844;51.302;6.354;2022-11-20T14:16:45;6.50;99.90
27376;DHT22;14844;51.302;6.354;2022-11-20T14:24:37;6.50;99.90
27376;DHT22;14844;51.302;6.354;2022-11-20T14:27:03;6.40;99.90
27376;DHT22;14844;51.302;6.354;2022-11-20T14:29:33;6.40;99.90
27376;DHT22;14844;51.302;6.354;2022-11-20T14:31:59;6.40;99.90
27376;DHT22;14844;51.302;6.354;2022-11-20T14:34:35;6.30;99.90
27376;DHT22;14844;51.302;6.354;2022-11-20T14:37:10;6.30;99.90
27376;DHT22;14844;51.302;6.354;2022-11-20T14:39:41;6.30;99.90
27376;DHT22;14844;51.302;6.354;2022-11-20T14:42:19;6.30;99.90
27376;DHT22;14844;51.302;6.354;2022-11-20T14:44:45;6.20;99.90
27376;DHT22;14844;51.302;6.354;2022-11-20T14:47:13;6.20;99.90
27376;DHT22;14844;51.302;6.354;2022-11-20T14:49:40;6.10;99.90
27376;DHT22;14844;51.302;6.354;2022-11-20T14:52:16;6.10;99.90
27376;DHT22;14844;51.302;6.354;2022-11-20T14:54:50;6.10;99.90
27376;DHT22;14844;51.302;6.354;2022-11-20T14:59:49;6.10;99.90
27376;DHT22;14844;51.302;6.354;2022-11-20T15:02:15;6.10;99.90
27376;DHT22;14844;51.302;6.354;2022-11-20T15:04:48;6.10;99.90
27376;DHT22;14844;51.302;6.354;2022-11-20T15:07:30;6.00;99.90
27376;DHT22;14844;51.302;6.354;2022-11-20T15:10:07;6.00;99.90
27376;DHT22;14844;51.302;6.354;2022-11-20T15:12:46;5.90;99.90
27376;DHT22;14844;51.302;6.354;2022-11-20T15:15:21;5.90;99.90
27376;DHT22;14844;51.302;6.354;2022-11-20T15:17:48;5.90;99.90
27376;DHT22;14844;51.302;6.354;2022-11-20T15:20:16;5.90;99.90
27376;DHT22;14844;51.302;6.354;2022-11-20T15:22:42;5.80;99.90
27376;DHT22;14844;51.302;6.354;2022-11-20T15:25:15;5.70;99.90
27376;DHT22;14844;51.302;6.354;2022-11-20T15:27:42;5.70;99.90
27376;DHT22;14844;51.302;6.354;2022-11-20T15:30:18;5.70;99.90
27376;DHT22;14844;51.302;6.354;2022-11-20T15:32:45;5.70;99.90
27376;DHT22;14844;51.302;6.354;2022-11-20T15:35:12;5.60;99.90
27376;DHT22;14844;51.302;6.354;2022-11-20T15:37:38;5.60;99.90
27376;DHT22;14844;51.302;6.354;2022-11-20T15:40:05;5.60;99.90
27376;DHT22;14844;51.302;6.354;2022-11-20T15:42:31;5.50;99.90
27376;DHT22;14844;51.302;6.354;2022-11-20T15:44:57;5.50;99.90
27376;DHT22;14844;51.302;6.354;2022-11-20T15:47:27;5.50;99.90
27376;DHT22;14844;51.302;6.354;2022-11-20T15:49:53;5.50;99.90
27376;DHT22;14844;51.302;6.354;2022-11-20T15:52:18;5.50;99.90
27376;DHT22;14844;51.302;6.354;2022-11-20T15:54:44;5.50;99.90
27376;DHT22;14844;51.302;6.354;2022-11-20T15:57:09;5.50;99.90
27376;DHT22;14844;51.302;6.354;2022-11-20T15:59:35;5.50;99.90
27376;DHT22;14844;51.302;6.354;2022-11-20T16:02:09;5.50;99.90
27376;DHT22;14844;51.302;6.354;2022-11-20T16:04:36;5.40;99.90
27376;DHT22;14844;51.302;6.354;2022-11-20T16:07:01;5.40;99.90
27376;DHT22;14844;51.302;6.354;2022-11-20T16:09:27;5.40;99.90
27376;DHT22;14844;51.302;6.354;2022-11-20T16:11:52;5.40;99.90
27376;DHT22;14844;51.302;6.354;2022-11-20T16:14:18;5.40;99.90
27376;DHT22;14844;51.302;6.354;2022-11-20T16:17:02;5.50;99.90
27376;DHT22;14844;51.302;6.354;2022-11-20T16:19:28;5.50;99.90
27376;DHT22;14844;51.302;6.354;2022-11-20T16:21:53;5.50;99.90
27376;DHT22;14844;51.302;6.354;2022-11-20T16:24:19;5.50;99.90
27376;DHT22;14844;51.302;6.354;2022-11-20T16:26:45;5.50;99.90
27376;DHT22;14844;51.302;6.354;2022-11-20T16:29:11;5.50;99.90
27376;DHT22;14844;51.302;6.354;2022-11-20T16:31:37;5.50;99.90
27376;DHT22;14844;51.302;6.354;2022-11-20T16:34:05;5.50;99.90
27376;DHT22;14844;51.302;6.354;2022-11-20T16:36:31;5.50;99.90
27376;DHT22;14844;51.302;6.354;2022-11-20T16:38:59;5.60;99.90
27376;DHT22;14844;51.302;6.354;2022-11-20T16:41:27;5.50;99.90
27376;DHT22;14844;51.302;6.354;2022-11-20T16:43:58;5.50;99.90
27376;DHT22;14844;51.302;6.354;2022-11-20T16:46:25;5.50;99.90
27376;DHT22;14844;51.302;6.354;2022-11-20T16:48:56;5.50;99.90
27376;DHT22;14844;51.302;6.354;2022-11-20T16:51:23;5.50;99.90
27376;DHT22;14844;51.302;6.354;2022-11-20T16:53:49;5.50;99.90
27376;DHT22;14844;51.302;6.354;2022-11-20T16:56:17;5.60;99.90
27376;DHT22;14844;51.302;6.354;2022-11-20T16:58:44;5.60;99.90
27376;DHT22;14844;51.302;6.354;2022-11-20T17:01:12;5.60;99.90
27376;DHT22;14844;51.302;6.354;2022-11-20T17:03:39;5.60;99.90
27376;DHT22;14844;51.302;6.354;2022-11-20T17:06:17;5.60;99.90
27376;DHT22;14844;51.302;6.354;2022-11-20T17:08:44;5.60;99.90
27376;DHT22;14844;51.302;6.354;2022-11-20T17:11:12;5.70;99.90
27376;DHT22;14844;51.302;6.354;2022-11-20T17:13:37;5.70;99.90
27376;DHT22;14844;51.302;6.354;2022-11-20T17:16:06;5.70;99.90
27376;DHT22;14844;51.302;6.354;2022-11-20T17:18:32;5.70;99.90
27376;DHT22;14844;51.302;6.354;2022-11-20T17:20:58;5.70;99.90
27376;DHT22;14844;51.302;6.354;2022-11-20T17:23:29;5.70;99.90